createdAt,value
2023-02-24T00:00:07.966Z,41.58
2023-02-24T00:01:39.458Z,43.66
2023-02-24T00:03:10.886Z,39.81
2023-02-24T00:04:42.185Z,39.63
2023-02-24T00:06:13.538Z,39.95
2023-02-24T00:07:45.166Z,37.15
2023-02-24T00:09:16.621Z,37.02
2023-02-24T00:10:47.968Z,35.70
2023-02-24T00:12:19.282Z,33.00
2023-02-24T00:13:50.828Z,37.42
2023-02-24T00:15:27.316Z,33.09
2023-02-24T00:16:58.877Z,36.70
2023-02-24T00:18:35.449Z,40.45
2023-02-24T00:20:06.831Z,42.01
2023-02-24T00:21:38.120Z,33.93
2023-02-24T00:23:09.427Z,31.15
2023-02-24T00:24:41.209Z,35.19
2023-02-24T00:26:17.740Z,37.51
2023-02-24T00:27:50.346Z,41.11
2023-02-24T00:29:21.894Z,37.76
2023-02-24T00:30:53.472Z,36.00
2023-02-24T00:32:25.387Z,39.60
2023-02-24T00:34:02.985Z,43.06
2023-02-24T00:35:34.557Z,40.83
2023-02-24T00:37:06.210Z,40.56
2023-02-24T00:38:37.723Z,40.43
2023-02-24T00:40:09.610Z,34.99
2023-02-24T00:41:42.138Z,36.10
2023-02-24T00:43:13.722Z,32.94
2023-02-24T00:44:45.858Z,38.25
2023-02-24T00:46:22.418Z,32.06
2023-02-24T00:47:54.326Z,36.81
2023-02-24T00:49:25.984Z,35.04
2023-02-24T00:50:57.571Z,39.44
2023-02-24T00:52:30.992Z,35.53
2023-02-24T00:54:02.513Z,31.49
2023-02-24T00:55:33.879Z,37.29
2023-02-24T00:57:05.215Z,35.15
2023-02-24T00:58:36.487Z,36.42
2023-02-24T01:00:09.030Z,35.60
2023-02-24T01:01:40.911Z,31.80
2023-02-24T01:03:12.258Z,33.18
2023-02-24T01:04:43.612Z,34.09
2023-02-24T01:06:15.207Z,30.93
2023-02-24T01:07:46.443Z,31.36
2023-02-24T01:09:17.786Z,34.81
2023-02-24T01:10:49.159Z,29.53
2023-02-24T01:12:20.645Z,38.52
2023-02-24T01:13:51.845Z,33.23
2023-02-24T01:15:23.142Z,34.85
2023-02-24T01:16:54.587Z,31.63
2023-02-24T01:18:25.824Z,26.16
2023-02-24T01:19:57.242Z,33.77
2023-02-24T01:21:34.089Z,33.83
2023-02-24T01:23:05.476Z,27.77
2023-02-24T01:24:37.000Z,29.26
2023-02-24T01:26:08.440Z,33.86
2023-02-24T01:27:40.020Z,32.86
2023-02-24T01:29:11.405Z,33.37
2023-02-24T01:30:42.595Z,31.72
2023-02-24T01:32:14.036Z,32.59
2023-02-24T01:33:45.585Z,33.25
2023-02-24T01:35:16.943Z,32.12
2023-02-24T01:36:48.577Z,34.66
2023-02-24T01:38:19.963Z,33.28
2023-02-24T01:39:51.298Z,31.64
2023-02-24T01:41:22.705Z,31.67
2023-02-24T01:42:54.257Z,33.11
2023-02-24T01:44:25.897Z,30.89
2023-02-24T01:45:57.323Z,31.15
2023-02-24T01:47:28.821Z,30.94
2023-02-24T01:49:00.107Z,27.36
2023-02-24T01:50:31.367Z,32.78
2023-02-24T01:52:02.808Z,30.64
2023-02-24T01:53:34.199Z,33.21
2023-02-24T01:55:05.483Z,33.29
2023-02-24T01:56:36.953Z,31.44
2023-02-24T01:58:08.486Z,32.70
2023-02-24T01:59:39.977Z,33.92
2023-02-24T02:01:11.317Z,34.85
2023-02-24T02:02:42.879Z,30.35
2023-02-24T02:04:14.968Z,30.88
2023-02-24T02:05:46.713Z,35.01
2023-02-24T02:07:18.267Z,33.51
2023-02-24T02:08:49.810Z,32.83
2023-02-24T02:10:21.061Z,36.87
2023-02-24T02:11:52.393Z,37.42
2023-02-24T02:13:23.697Z,32.05
2023-02-24T02:14:55.097Z,30.23
2023-02-24T02:16:26.449Z,34.22
2023-02-24T02:17:57.788Z,34.02
2023-02-24T02:19:29.527Z,35.08
2023-02-24T02:21:01.155Z,34.30
2023-02-24T02:22:32.615Z,33.73
2023-02-24T02:24:03.976Z,34.18
2023-02-24T02:25:35.536Z,34.86
2023-02-24T02:27:07.071Z,36.84
2023-02-24T02:28:38.337Z,41.57
2023-02-24T02:30:09.676Z,37.11
2023-02-24T02:31:41.299Z,38.12
2023-02-24T02:33:12.583Z,39.13
2023-02-24T02:34:43.909Z,42.49
2023-02-24T02:36:15.510Z,42.32
2023-02-24T02:37:46.769Z,33.98
2023-02-24T02:39:18.371Z,32.61
2023-02-24T02:40:49.573Z,37.32
2023-02-24T02:42:21.116Z,40.72
2023-02-24T02:43:52.627Z,43.07
2023-02-24T02:45:24.075Z,35.26
2023-02-24T02:46:55.495Z,33.76
2023-02-24T02:48:27.093Z,30.87
2023-02-24T02:49:58.308Z,39.20
2023-02-24T02:51:29.689Z,40.55
2023-02-24T02:53:01.293Z,32.53
2023-02-24T02:54:32.819Z,38.06
2023-02-24T02:56:04.053Z,38.54
2023-02-24T02:57:35.282Z,35.30
2023-02-24T02:59:06.719Z,38.99
2023-02-24T03:00:38.176Z,35.58
2023-02-24T03:02:09.835Z,37.33
2023-02-24T03:03:41.278Z,40.04
2023-02-24T03:05:12.690Z,33.18
2023-02-24T03:06:44.238Z,35.48
2023-02-24T03:08:15.617Z,35.68
2023-02-24T03:09:47.072Z,36.36
2023-02-24T03:11:18.586Z,37.44
2023-02-24T03:12:50.011Z,40.19
2023-02-24T03:14:21.538Z,35.66
2023-02-24T03:15:53.063Z,32.56
2023-02-24T03:17:24.454Z,33.36
2023-02-24T03:18:55.816Z,39.13
2023-02-24T03:20:27.725Z,35.88
2023-02-24T03:21:59.182Z,38.62
2023-02-24T03:23:30.782Z,32.11
2023-02-24T03:25:02.287Z,37.40
2023-02-24T03:26:38.570Z,34.76
2023-02-24T03:28:09.958Z,35.58
2023-02-24T03:29:41.434Z,35.38
2023-02-24T03:31:13.001Z,35.33
2023-02-24T03:32:44.430Z,34.27
2023-02-24T03:34:15.771Z,33.37
2023-02-24T03:35:47.150Z,34.18
2023-02-24T03:37:18.691Z,36.56
2023-02-24T03:38:50.062Z,36.48
2023-02-24T03:40:21.586Z,37.53
2023-02-24T03:41:52.859Z,30.39
2023-02-24T03:43:24.100Z,33.18
2023-02-24T03:44:55.654Z,30.89
2023-02-24T03:46:26.969Z,31.57
2023-02-24T03:47:58.426Z,26.74
2023-02-24T03:49:29.695Z,26.97
2023-02-24T03:51:01.136Z,25.98
2023-02-24T03:52:32.456Z,28.77
2023-02-24T03:54:03.826Z,34.69
2023-02-24T03:55:35.197Z,27.82
2023-02-24T03:57:06.581Z,28.05
2023-02-24T03:58:37.820Z,27.32
2023-02-24T04:00:09.340Z,29.74
2023-02-24T04:01:40.818Z,24.67
2023-02-24T04:03:13.432Z,25.21
2023-02-24T04:04:45.342Z,25.61
2023-02-24T04:06:16.689Z,27.46
2023-02-24T04:07:48.227Z,23.32
2023-02-24T04:09:19.771Z,25.76
2023-02-24T04:10:51.520Z,27.96
2023-02-24T04:12:22.770Z,29.81
2023-02-24T04:13:54.372Z,23.31
2023-02-24T04:15:25.664Z,24.84
2023-02-24T04:16:57.049Z,27.94
2023-02-24T04:18:28.316Z,27.90
2023-02-24T04:19:59.631Z,28.40
2023-02-24T04:21:30.871Z,28.91
2023-02-24T04:23:02.438Z,28.80
2023-02-24T04:24:38.906Z,23.26
2023-02-24T04:26:10.226Z,30.55
2023-02-24T04:27:41.663Z,31.31
2023-02-24T04:29:13.060Z,28.45
2023-02-24T04:30:44.591Z,27.57
2023-02-24T04:32:16.398Z,29.17
2023-02-24T04:33:47.787Z,26.32
2023-02-24T04:35:19.039Z,28.76
2023-02-24T04:36:50.436Z,25.35
2023-02-24T04:38:22.271Z,28.14
2023-02-24T04:39:53.762Z,26.44
2023-02-24T04:41:25.016Z,25.67
2023-02-24T04:42:56.361Z,26.75
2023-02-24T04:44:28.144Z,23.33
2023-02-24T04:45:59.405Z,22.30
2023-02-24T04:47:30.837Z,25.47
2023-02-24T04:49:02.165Z,23.96
2023-02-24T04:50:33.410Z,25.25
2023-02-24T04:52:04.628Z,24.04
2023-02-24T04:53:36.037Z,27.32
2023-02-24T04:55:07.634Z,25.97
2023-02-24T04:56:39.373Z,28.70
2023-02-24T04:58:10.891Z,23.80
2023-02-24T04:59:42.408Z,23.86
2023-02-24T05:01:13.638Z,26.08
2023-02-24T05:02:45.091Z,24.11
2023-02-24T05:04:16.387Z,27.39
2023-02-24T05:05:47.921Z,31.53
2023-02-24T05:07:19.114Z,25.15
2023-02-24T05:08:50.347Z,25.46
2023-02-24T05:10:21.762Z,21.82
2023-02-24T05:11:53.027Z,23.52
2023-02-24T05:13:24.296Z,22.43
2023-02-24T05:14:55.534Z,21.53
2023-02-24T05:16:26.952Z,24.80
2023-02-24T05:17:58.238Z,21.83
2023-02-24T05:19:29.540Z,23.70
2023-02-24T05:21:01.855Z,20.18
2023-02-24T05:22:33.726Z,20.41
2023-02-24T05:24:05.212Z,22.33
2023-02-24T05:25:36.549Z,20.23
2023-02-24T05:27:07.775Z,20.19
2023-02-24T05:28:39.118Z,22.97
2023-02-24T05:30:10.476Z,21.61
2023-02-24T05:31:42.205Z,23.46
2023-02-24T05:33:13.549Z,23.47
2023-02-24T05:34:45.002Z,20.92
2023-02-24T05:36:16.347Z,21.65
2023-02-24T05:37:47.674Z,23.60
2023-02-24T05:39:19.041Z,22.32
2023-02-24T05:40:50.477Z,22.72
2023-02-24T05:42:22.212Z,21.91
2023-02-24T05:43:53.866Z,23.29
2023-02-24T05:45:25.221Z,25.33
2023-02-24T05:46:56.524Z,21.89
2023-02-24T05:48:27.835Z,22.94
2023-02-24T05:49:59.062Z,21.40
2023-02-24T05:51:30.447Z,20.58
2023-02-24T05:53:02.093Z,25.89
2023-02-24T05:54:48.926Z,22.76
2023-02-24T05:56:20.210Z,22.25
2023-02-24T05:57:51.549Z,21.14
2023-02-24T05:59:22.992Z,19.41
2023-02-24T06:00:54.212Z,30.06
2023-02-24T06:02:25.510Z,23.05
2023-02-24T06:03:58.183Z,23.57
2023-02-24T06:05:29.718Z,20.25
2023-02-24T06:07:00.910Z,22.90
2023-02-24T06:08:37.330Z,26.74
2023-02-24T06:10:08.724Z,26.74
2023-02-24T06:11:40.154Z,24.71
2023-02-24T06:13:11.508Z,24.79
2023-02-24T06:14:43.032Z,21.19
2023-02-24T06:16:14.475Z,22.12
2023-02-24T06:17:45.888Z,22.76
2023-02-24T06:19:17.696Z,20.75
2023-02-24T06:20:49.085Z,23.29
2023-02-24T06:22:20.414Z,25.44
2023-02-24T06:23:51.893Z,24.11
2023-02-24T06:25:23.088Z,25.24
2023-02-24T06:26:54.470Z,23.40
2023-02-24T06:28:26.010Z,20.97
2023-02-24T06:29:57.381Z,22.20
2023-02-24T06:31:29.879Z,23.66
2023-02-24T06:33:27.377Z,25.59
2023-02-24T06:34:58.687Z,25.03
2023-02-24T06:36:30.266Z,23.15
2023-02-24T06:38:01.755Z,23.15
2023-02-24T06:39:35.498Z,23.25
2023-02-24T06:41:07.807Z,19.25
2023-02-24T06:42:39.198Z,19.05
2023-02-24T06:44:10.761Z,19.14
2023-02-24T06:45:42.344Z,19.21
2023-02-24T06:47:14.032Z,17.70
2023-02-24T06:48:45.448Z,21.79
2023-02-24T06:50:16.838Z,21.74
2023-02-24T06:51:48.373Z,20.31
2023-02-24T06:53:19.787Z,24.68
2023-02-24T06:54:51.240Z,17.80
2023-02-24T06:56:22.556Z,20.06
2023-02-24T06:57:53.828Z,22.67
2023-02-24T06:59:30.195Z,20.11
2023-02-24T07:01:01.672Z,15.66
2023-02-24T07:02:33.120Z,17.46
2023-02-24T07:04:05.703Z,21.14
2023-02-24T07:05:37.179Z,19.15
2023-02-24T07:07:08.407Z,18.17
2023-02-24T07:08:39.772Z,22.25
2023-02-24T07:10:11.105Z,18.32
2023-02-24T07:11:44.069Z,18.02
2023-02-24T07:13:16.947Z,19.82
2023-02-24T07:14:49.203Z,17.99
2023-02-24T07:16:21.446Z,17.64
2023-02-24T07:17:54.036Z,21.52
2023-02-24T07:19:26.560Z,19.98
2023-02-24T07:20:58.980Z,18.32
2023-02-24T07:22:31.364Z,19.36
2023-02-24T07:24:03.909Z,19.32
2023-02-24T07:25:36.449Z,18.41
2023-02-24T07:27:08.914Z,18.68
2023-02-24T07:28:40.986Z,17.03
2023-02-24T07:30:13.971Z,18.15
2023-02-24T07:31:46.687Z,18.54
2023-02-24T07:33:18.856Z,15.38
2023-02-24T07:34:51.314Z,18.50
2023-02-24T07:36:23.822Z,19.30
2023-02-24T07:37:57.008Z,16.04
2023-02-24T07:39:30.199Z,18.25
2023-02-24T07:41:02.502Z,19.02
2023-02-24T07:42:35.480Z,18.82
2023-02-24T07:44:07.360Z,22.16
2023-02-24T07:45:40.644Z,20.04
2023-02-24T07:47:13.493Z,18.76
2023-02-24T07:48:51.830Z,21.24
2023-02-24T07:50:24.851Z,24.65
2023-02-24T07:51:58.477Z,19.40
2023-02-24T07:53:31.196Z,22.18
2023-02-24T07:55:03.403Z,23.39
2023-02-24T07:56:35.996Z,20.50
2023-02-24T07:58:08.339Z,19.03
2023-02-24T07:59:41.110Z,24.72
2023-02-24T08:01:13.363Z,21.16
2023-02-24T08:02:45.492Z,22.53
2023-02-24T08:04:16.920Z,21.59
2023-02-24T08:05:48.239Z,22.92
2023-02-24T08:07:19.707Z,18.14
2023-02-24T08:08:51.023Z,20.04
2023-02-24T08:10:22.406Z,21.25
2023-02-24T08:11:53.692Z,20.21
2023-02-24T08:13:25.662Z,18.60
2023-02-24T08:14:57.001Z,17.60
2023-02-24T08:16:28.644Z,19.45
2023-02-24T08:18:00.450Z,20.92
2023-02-24T08:19:32.392Z,15.51
2023-02-24T08:21:04.379Z,14.99
2023-02-24T08:22:35.575Z,14.25
2023-02-24T08:24:06.818Z,13.85
2023-02-24T08:25:38.398Z,16.93
2023-02-24T08:27:09.744Z,17.51
2023-02-24T08:28:40.982Z,17.39
2023-02-24T08:30:12.422Z,14.16
2023-02-24T08:31:44.228Z,11.62
2023-02-24T08:33:15.480Z,14.23
2023-02-24T08:34:47.222Z,13.94
2023-02-24T08:36:18.560Z,14.79
2023-02-24T08:37:49.950Z,17.25
2023-02-24T08:39:21.554Z,14.25
2023-02-24T08:40:52.976Z,14.59
2023-02-24T08:42:35.333Z,11.80
2023-02-24T08:44:07.109Z,15.01
2023-02-24T08:45:38.651Z,13.41
2023-02-24T08:47:10.114Z,12.43
2023-02-24T08:48:41.699Z,10.58
2023-02-24T08:50:13.181Z,8.77
2023-02-24T08:52:06.495Z,10.95
2023-02-24T08:53:38.035Z,12.08
2023-02-24T08:55:09.308Z,13.14
2023-02-24T08:56:41.965Z,12.05
2023-02-24T08:58:13.479Z,12.20
2023-02-24T08:59:45.091Z,14.07
2023-02-24T09:01:16.822Z,20.02
2023-02-24T09:02:49.064Z,18.31
2023-02-24T09:04:20.862Z,19.50
2023-02-24T09:05:52.450Z,14.35
2023-02-24T09:07:23.778Z,17.50
2023-02-24T09:08:55.322Z,16.84
2023-02-24T09:10:26.690Z,16.45
2023-02-24T09:11:58.159Z,19.90
2023-02-24T09:13:29.553Z,12.11
2023-02-24T09:15:00.992Z,14.72
2023-02-24T09:16:32.626Z,18.21
2023-02-24T09:18:04.189Z,12.97
2023-02-24T09:19:35.487Z,17.94
2023-02-24T09:21:07.506Z,16.46
2023-02-24T09:22:38.963Z,14.36
2023-02-24T09:24:10.439Z,12.06
2023-02-24T09:25:41.701Z,15.80
2023-02-24T09:27:13.239Z,15.74
2023-02-24T09:28:46.458Z,12.52
2023-02-24T09:30:17.846Z,15.06
2023-02-24T09:31:49.780Z,13.93
2023-02-24T09:33:21.389Z,16.44
2023-02-24T09:34:53.480Z,15.15
2023-02-24T09:36:25.386Z,12.19
2023-02-24T09:37:56.733Z,17.81
2023-02-24T09:39:28.010Z,15.67
2023-02-24T09:41:02.753Z,15.90
2023-02-24T09:44:48.707Z,20.73
2023-02-24T09:46:20.618Z,20.98
2023-02-24T09:47:57.701Z,17.78
2023-02-24T09:49:30.026Z,12.22
2023-02-24T09:51:08.803Z,12.66
2023-02-24T09:52:40.384Z,11.28
2023-02-24T09:54:21.820Z,10.27
2023-02-24T09:55:53.349Z,11.31
2023-02-24T09:57:24.644Z,9.32
2023-02-24T09:59:01.555Z,11.48
2023-02-24T10:00:42.980Z,14.79
2023-02-24T10:02:14.516Z,7.29
2023-02-24T10:03:46.019Z,7.47
2023-02-24T10:05:17.481Z,12.98
2023-02-24T10:06:48.956Z,12.42
2023-02-24T10:08:20.874Z,12.20
2023-02-24T10:09:52.356Z,14.82
2023-02-24T10:11:24.002Z,14.38
2023-02-24T10:12:55.476Z,17.89
2023-02-24T10:14:29.400Z,15.22
2023-02-24T10:16:06.709Z,11.68
2023-02-24T10:17:38.132Z,14.47
2023-02-24T10:19:09.576Z,16.02
2023-02-24T10:20:41.227Z,13.65
2023-02-24T10:22:12.658Z,14.68
2023-02-24T10:23:44.075Z,14.65
2023-02-24T10:25:21.147Z,13.55
2023-02-24T10:27:00.935Z,18.64
2023-02-24T10:28:32.622Z,12.98
2023-02-24T10:30:04.090Z,10.33
2023-02-24T10:31:35.797Z,13.21
2023-02-24T10:33:07.958Z,14.79
2023-02-24T10:34:39.553Z,10.99
2023-02-24T10:36:11.256Z,13.19
2023-02-24T10:37:42.601Z,8.66
2023-02-24T10:39:13.849Z,9.33
2023-02-24T10:40:45.314Z,10.19
2023-02-24T10:42:16.716Z,13.64
2023-02-24T10:43:48.137Z,8.38
2023-02-24T10:45:20.691Z,7.89
2023-02-24T10:46:52.760Z,12.99
2023-02-24T10:48:32.313Z,9.33
2023-02-24T10:50:10.690Z,10.87
2023-02-24T10:51:42.317Z,8.52
2023-02-24T10:53:13.831Z,11.76
2023-02-24T10:54:45.731Z,12.41
2023-02-24T10:56:17.131Z,10.99
2023-02-24T10:57:58.541Z,8.81
2023-02-24T10:59:30.496Z,14.73
2023-02-24T11:01:01.944Z,8.36
2023-02-24T11:02:33.316Z,10.25
2023-02-24T11:04:04.665Z,13.52
2023-02-24T11:05:35.923Z,9.86
2023-02-24T11:07:07.558Z,9.93
2023-02-24T11:08:39.097Z,14.57
2023-02-24T11:10:10.580Z,12.91
2023-02-24T11:11:42.608Z,12.47
2023-02-24T11:13:13.832Z,14.20
2023-02-24T11:14:45.081Z,9.01
2023-02-24T11:16:16.396Z,12.31
2023-02-24T11:17:48.145Z,10.79
2023-02-24T11:19:19.401Z,11.41
2023-02-24T11:20:50.760Z,13.60
2023-02-24T11:22:21.943Z,12.22
2023-02-24T11:23:53.292Z,13.78
2023-02-24T11:25:24.546Z,18.12
2023-02-24T11:26:56.287Z,15.61
2023-02-24T11:28:27.714Z,10.96
2023-02-24T11:29:58.967Z,8.78
2023-02-24T11:31:30.265Z,11.08
2023-02-24T11:33:01.507Z,12.66
2023-02-24T11:34:32.966Z,13.22
2023-02-24T11:36:04.531Z,13.29
2023-02-24T11:37:35.806Z,15.51
2023-02-24T11:39:18.119Z,8.15
2023-02-24T11:40:52.428Z,10.36
2023-02-24T11:42:23.864Z,12.66
2023-02-24T11:43:55.417Z,11.26
2023-02-24T11:45:26.902Z,12.99
2023-02-24T11:46:58.450Z,13.26
2023-02-24T11:48:29.961Z,12.43
2023-02-24T11:50:03.801Z,14.74
2023-02-24T11:51:36.155Z,12.23
2023-02-24T11:53:07.453Z,10.17
2023-02-24T11:54:39.058Z,10.51
2023-02-24T11:56:10.622Z,10.00
2023-02-24T11:57:42.067Z,15.25
2023-02-24T11:59:13.391Z,12.07
2023-02-24T12:00:45.828Z,10.49
2023-02-24T12:02:18.460Z,11.20
2023-02-24T12:03:50.228Z,14.57
2023-02-24T12:05:22.299Z,16.84
2023-02-24T12:06:54.096Z,15.15
2023-02-24T12:08:25.694Z,12.20
2023-02-24T12:10:06.979Z,9.32
2023-02-24T12:11:42.078Z,10.82
2023-02-24T12:13:13.350Z,14.16
2023-02-24T12:14:44.575Z,15.15
2023-02-24T12:16:15.977Z,14.77
2023-02-24T12:17:47.550Z,17.42
2023-02-24T12:19:19.228Z,14.71
2023-02-24T12:20:50.743Z,14.46
2023-02-24T12:22:21.954Z,15.56
2023-02-24T12:23:53.523Z,13.05
2023-02-24T12:25:24.871Z,14.74
2023-02-24T12:26:56.197Z,13.35
2023-02-24T12:28:27.621Z,12.18
2023-02-24T12:29:59.680Z,13.55
2023-02-24T12:31:31.252Z,9.34
2023-02-24T12:33:02.782Z,14.84
2023-02-24T12:34:34.305Z,19.05
2023-02-24T12:36:05.912Z,13.93
2023-02-24T12:37:37.499Z,18.55
2023-02-24T12:39:08.801Z,19.56
2023-02-24T12:40:40.115Z,10.62
2023-02-24T12:42:11.342Z,10.97
2023-02-24T12:43:42.622Z,14.84
2023-02-24T12:45:13.947Z,18.63
2023-02-24T12:46:45.528Z,23.53
2023-02-24T12:48:16.701Z,24.03
2023-02-24T12:49:47.935Z,17.35
2023-02-24T12:51:20.694Z,14.96
2023-02-24T12:52:52.296Z,13.66
2023-02-24T12:54:23.641Z,14.29
2023-02-24T12:55:54.910Z,15.57
2023-02-24T12:57:26.266Z,15.43
2023-02-24T12:58:57.790Z,12.47
2023-02-24T13:00:29.143Z,16.00
2023-02-24T13:02:00.421Z,13.73
2023-02-24T13:03:31.935Z,10.22
2023-02-24T13:05:03.118Z,11.54
2023-02-24T13:06:34.807Z,10.67
2023-02-24T13:08:06.422Z,10.12
2023-02-24T13:09:37.942Z,11.21
2023-02-24T13:11:09.223Z,10.35
2023-02-24T13:12:40.475Z,8.79
2023-02-24T13:14:11.829Z,8.98
2023-02-24T13:15:43.572Z,8.07
2023-02-24T13:17:15.236Z,9.40
2023-02-24T13:18:48.962Z,15.13
2023-02-24T13:20:20.425Z,11.89
2023-02-24T13:21:51.839Z,9.19
2023-02-24T13:23:23.209Z,9.09
2023-02-24T13:24:54.726Z,8.31
2023-02-24T13:26:26.046Z,12.00
2023-02-24T13:28:41.048Z,13.19
2023-02-24T13:30:13.412Z,12.89
2023-02-24T13:31:44.815Z,12.18
2023-02-24T13:33:16.345Z,16.12
2023-02-24T13:34:47.715Z,15.35
2023-02-24T13:36:19.019Z,15.51
2023-02-24T13:37:50.248Z,16.81
2023-02-24T13:39:21.728Z,10.72
2023-02-24T13:40:53.162Z,9.47
2023-02-24T13:42:24.962Z,9.15
2023-02-24T13:43:56.542Z,10.41
2023-02-24T13:45:27.767Z,11.04
2023-02-24T13:46:59.547Z,12.43
2023-02-24T13:48:30.775Z,14.94
2023-02-24T13:50:02.388Z,13.43
2023-02-24T13:51:33.841Z,12.63
2023-02-24T13:53:05.315Z,10.72
2023-02-24T13:54:36.459Z,14.30
2023-02-24T13:56:07.694Z,14.64
2023-02-24T13:57:39.038Z,12.17
2023-02-24T13:59:10.399Z,10.33
2023-02-24T14:00:41.681Z,14.02
2023-02-24T14:02:13.107Z,13.50
2023-02-24T14:03:44.584Z,10.37
2023-02-24T14:05:16.278Z,8.24
2023-02-24T14:06:47.736Z,12.68
2023-02-24T14:08:19.100Z,12.32
2023-02-24T14:09:50.697Z,11.16
2023-02-24T14:11:22.330Z,9.73
2023-02-24T14:12:54.007Z,14.50
2023-02-24T14:14:25.355Z,15.03
2023-02-24T14:15:56.716Z,15.94
2023-02-24T14:17:27.922Z,12.52
2023-02-24T14:18:59.259Z,15.01
2023-02-24T14:20:30.769Z,14.74
2023-02-24T14:22:02.106Z,15.96
2023-02-24T14:23:33.541Z,18.74
2023-02-24T14:25:04.757Z,14.44
2023-02-24T14:26:36.097Z,15.93
2023-02-24T14:28:07.583Z,18.59
2023-02-24T14:29:44.154Z,10.73
2023-02-24T14:31:15.864Z,18.17
2023-02-24T14:32:47.400Z,15.80
2023-02-24T14:34:18.833Z,14.49
2023-02-24T14:35:50.161Z,21.86
2023-02-24T14:37:21.468Z,21.57
2023-02-24T14:38:52.860Z,18.90
2023-02-24T14:40:24.036Z,21.59
2023-02-24T14:41:55.388Z,13.24
2023-02-24T14:43:26.617Z,14.73
2023-02-24T14:44:57.921Z,15.86
2023-02-24T14:46:29.808Z,12.79
2023-02-24T14:48:01.245Z,18.95
2023-02-24T14:49:33.648Z,22.71
2023-02-24T14:51:04.975Z,18.67
2023-02-24T14:52:36.595Z,15.72
2023-02-24T14:54:07.920Z,11.99
2023-02-24T14:55:39.735Z,22.94
2023-02-24T14:57:11.250Z,23.73
2023-02-24T14:58:43.588Z,17.87
2023-02-24T15:00:15.002Z,20.31
2023-02-24T15:01:46.284Z,19.11
2023-02-24T15:03:17.663Z,23.55
2023-02-24T15:04:49.334Z,25.33
2023-02-24T15:06:47.676Z,23.09
2023-02-24T15:08:19.706Z,24.28
2023-02-24T15:10:17.491Z,24.74
2023-02-24T15:11:49.151Z,20.79
2023-02-24T15:13:30.935Z,21.37
2023-02-24T15:15:22.138Z,15.03
2023-02-24T15:16:53.402Z,17.76
2023-02-24T15:18:25.035Z,23.94
2023-02-24T15:19:56.638Z,22.26
2023-02-24T15:21:28.258Z,27.64
2023-02-24T15:22:59.710Z,22.21
2023-02-24T15:24:31.045Z,27.48
2023-02-24T15:26:12.628Z,24.54
2023-02-24T15:27:57.150Z,29.03
2023-02-24T15:29:28.396Z,30.46
2023-02-24T15:31:00.058Z,25.50
2023-02-24T15:32:31.496Z,30.27
2023-02-24T15:34:02.750Z,38.55
2023-02-24T15:36:20.709Z,37.81
2023-02-24T15:37:53.881Z,40.58
2023-02-24T15:40:06.675Z,33.09
2023-02-24T15:41:48.003Z,29.48
2023-02-24T15:43:43.841Z,32.73
2023-02-24T15:45:15.270Z,35.63
2023-02-24T15:47:24.605Z,37.56
2023-02-24T15:48:56.617Z,38.42
2023-02-24T15:50:36.866Z,39.30
2023-02-24T15:52:08.451Z,36.31
2023-02-24T15:53:49.724Z,45.27
2023-02-24T15:55:57.813Z,40.53
2023-02-24T15:57:29.637Z,38.66
2023-02-24T15:59:01.376Z,35.25
2023-02-24T16:00:32.965Z,32.78
2023-02-24T16:02:04.700Z,27.58
2023-02-24T16:03:37.214Z,32.04
2023-02-24T16:05:09.019Z,38.84
2023-02-24T16:06:47.789Z,41.49
2023-02-24T16:08:19.455Z,45.04
2023-02-24T16:10:37.178Z,46.49
2023-02-24T16:12:08.711Z,43.47
2023-02-24T16:13:51.031Z,39.08
2023-02-24T16:15:22.890Z,41.32
2023-02-24T16:16:54.185Z,44.84
2023-02-24T16:18:52.354Z,46.49
2023-02-24T16:20:23.853Z,43.83
2023-02-24T16:21:55.169Z,46.47
2023-02-24T16:23:26.539Z,37.36
2023-02-24T16:24:57.870Z,43.80
2023-02-24T16:26:29.188Z,39.28
2023-02-24T16:28:10.608Z,43.60
2023-02-24T16:30:13.106Z,50.05
2023-02-24T16:31:44.876Z,40.63
2023-02-24T16:33:16.539Z,35.66
2023-02-24T16:34:47.951Z,38.96
2023-02-24T16:36:21.558Z,47.66
2023-02-24T16:38:20.509Z,48.86
2023-02-24T16:39:52.217Z,46.38
2023-02-24T16:41:23.645Z,38.29
2023-02-24T16:43:19.589Z,31.67
2023-02-24T16:44:50.943Z,33.13
2023-02-24T16:46:38.158Z,27.20
2023-02-24T16:48:09.491Z,31.29
2023-02-24T16:49:40.974Z,28.62
2023-02-24T16:51:12.204Z,30.88
2023-02-24T16:52:48.662Z,26.42
2023-02-24T16:54:21.673Z,29.91
2023-02-24T16:55:53.285Z,24.34
2023-02-24T16:57:24.636Z,33.59
2023-02-24T16:59:15.918Z,29.20
2023-02-24T17:00:49.673Z,32.31
2023-02-24T17:02:21.149Z,32.25
2023-02-24T17:03:52.812Z,30.76
2023-02-24T17:05:24.371Z,30.05
2023-02-24T17:06:56.041Z,29.39
2023-02-24T17:08:27.451Z,25.69
2023-02-24T17:09:58.891Z,30.45
2023-02-24T17:11:30.525Z,27.07
2023-02-24T17:13:12.002Z,21.29
2023-02-24T17:14:43.538Z,20.34
2023-02-24T17:16:15.003Z,18.79
2023-02-24T17:17:46.307Z,21.80
2023-02-24T17:19:55.504Z,24.09
2023-02-24T17:21:27.229Z,20.20
2023-02-24T17:22:58.678Z,29.26
2023-02-24T17:24:30.537Z,26.83
2023-02-24T17:26:01.906Z,26.42
2023-02-24T17:27:33.649Z,26.34
2023-02-24T17:29:05.668Z,23.97
2023-02-24T17:30:53.947Z,22.96
2023-02-24T17:32:25.736Z,21.11
2023-02-24T17:34:30.425Z,23.08
2023-02-24T17:36:02.126Z,19.22
2023-02-24T17:37:33.459Z,26.92
2023-02-24T17:39:34.416Z,21.58
2023-02-24T17:41:06.232Z,20.24
2023-02-24T17:42:38.346Z,26.76
2023-02-24T17:44:10.158Z,26.32
2023-02-24T17:45:41.501Z,20.49
2023-02-24T17:47:22.835Z,23.06
2023-02-24T17:49:04.138Z,20.26
2023-02-24T17:50:55.567Z,18.61
2023-02-24T17:52:26.845Z,24.00
2023-02-24T17:53:58.361Z,27.33
2023-02-24T17:55:30.062Z,27.93
2023-02-24T17:57:23.346Z,23.84
2023-02-24T17:58:55.457Z,22.76
2023-02-24T18:00:26.870Z,25.24
2023-02-24T18:01:58.132Z,23.85
2023-02-24T18:03:57.551Z,21.09
2023-02-24T18:05:29.005Z,20.23
2023-02-24T18:07:36.000Z,24.86
2023-02-24T18:09:07.598Z,22.54
2023-02-24T18:10:39.843Z,24.59
2023-02-24T18:12:11.809Z,19.97
2023-02-24T18:13:48.797Z,20.80
2023-02-24T18:15:21.636Z,22.25
2023-02-24T18:16:53.104Z,19.25
2023-02-24T18:18:39.725Z,15.28
2023-02-24T18:20:21.340Z,14.21
2023-02-24T18:22:02.967Z,10.68
2023-02-24T18:25:40.534Z,13.84
2023-02-24T18:27:12.250Z,11.94
2023-02-24T18:28:43.946Z,13.79
2023-02-24T18:30:15.751Z,12.89
2023-02-24T18:31:47.653Z,13.54
2023-02-24T18:33:32.810Z,12.66
2023-02-24T18:35:09.569Z,11.79
2023-02-24T18:36:40.820Z,13.37
2023-02-24T18:38:22.048Z,14.42
2023-02-24T18:39:53.709Z,11.52
2023-02-24T18:41:25.143Z,15.32
2023-02-24T18:43:26.870Z,12.47
2023-02-24T18:44:58.936Z,11.54
2023-02-24T18:46:31.102Z,9.64
2023-02-24T18:48:03.846Z,12.32
2023-02-24T18:49:35.852Z,11.72
2023-02-24T18:51:07.384Z,10.48
2023-02-24T18:52:38.985Z,11.78
2023-02-24T18:54:10.210Z,8.79
2023-02-24T18:55:41.453Z,8.70
2023-02-24T18:57:13.474Z,9.13
2023-02-24T18:58:44.851Z,13.57
2023-02-24T19:02:10.424Z,12.31
2023-02-24T19:03:41.844Z,11.10
2023-02-24T19:05:13.112Z,9.37
2023-02-24T19:07:07.026Z,8.79
2023-02-24T19:08:38.954Z,13.22
2023-02-24T19:10:15.902Z,15.02
2023-02-24T19:11:47.540Z,9.65
2023-02-24T19:13:19.162Z,9.11
2023-02-24T19:14:50.851Z,10.50
2023-02-24T19:16:23.055Z,12.22
2023-02-24T19:18:38.549Z,10.42
2023-02-24T19:20:09.817Z,11.66
2023-02-24T19:21:41.071Z,11.96
2023-02-24T19:23:12.377Z,10.47
2023-02-24T19:24:43.740Z,12.66
2023-02-24T19:26:15.212Z,9.00
2023-02-24T19:29:55.501Z,11.02
2023-02-24T19:31:27.387Z,12.03
2023-02-24T19:33:06.317Z,10.58
2023-02-24T19:34:38.286Z,12.37
2023-02-24T19:36:10.265Z,12.77
2023-02-24T19:37:47.145Z,12.27
2023-02-24T19:39:19.209Z,11.81
2023-02-24T19:40:51.426Z,12.09
2023-02-24T19:42:23.080Z,10.19
2023-02-24T19:43:54.873Z,11.66
2023-02-24T19:45:26.697Z,15.87
2023-02-24T19:46:58.505Z,14.41
2023-02-24T19:48:32.236Z,14.71
2023-02-24T19:50:03.871Z,14.42
2023-02-24T19:51:35.201Z,15.79
2023-02-24T19:53:06.615Z,12.86
2023-02-24T19:54:38.032Z,10.57
2023-02-24T19:56:20.648Z,9.18
2023-02-24T19:57:52.349Z,10.12
2023-02-24T19:59:24.217Z,12.67
2023-02-24T20:00:56.108Z,10.54
2023-02-24T20:02:27.985Z,12.96
2023-02-24T20:03:59.614Z,13.09
2023-02-24T20:05:31.118Z,12.44
2023-02-24T20:07:02.688Z,13.00
2023-02-24T20:08:34.269Z,15.80
2023-02-24T20:10:05.672Z,13.09